TimeAKDT,TemperatureF,Dew PointF,Humidity,Sea Level PressureIn,VisibilityMPH,Wind Direction,Wind SpeedMPH,Gust SpeedMPH,PrecipitationIn,Events,Conditions,WindDirDegrees,DateUTC
12:54 AM,57.0,50.0,77,29.83,10.0,East,8.1,17.3,N/A,,Overcast,80,2013-08-23 08:54:00
1:54 AM,55.9,51.1,84,29.82,10.0,East,9.2,-,N/A,,Overcast,90,2013-08-23 09:54:00
2:50 AM,55.4,50.0,82,29.81,10.0,ESE,8.1,-,N/A,,Overcast,120,2013-08-23 10:50:00
2:54 AM,55.9,50.0,80,29.82,10.0,ENE,8.1,-,N/A,,Overcast,70,2013-08-23 10:54:00
3:49 AM,55.4,51.8,88,29.79,10.0,East,8.1,16.1,N/A,,Overcast,80,2013-08-23 11:49:00
3:54 AM,55.9,50.0,80,29.80,10.0,ENE,10.4,19.6,N/A,,Overcast,60,2013-08-23 11:54:00
4:16 AM,55.4,50.0,82,29.79,10.0,Variable,5.8,16.1,N/A,,Overcast,0,2013-08-23 12:16:00
4:23 AM,55.4,50.0,82,29.79,10.0,ENE,8.1,-,N/A,,Overcast,70,2013-08-23 12:23:00
4:54 AM,55.0,51.1,86,29.79,10.0,ENE,6.9,17.3,N/A,,Overcast,70,2013-08-23 12:54:00
5:49 AM,55.4,51.8,88,29.77,10.0,ENE,6.9,-,N/A,,Mostly Cloudy,70,2013-08-23 13:49:00
5:54 AM,55.9,51.1,84,29.78,10.0,ENE,8.1,-,N/A,,Mostly Cloudy,70,2013-08-23 13:54:00
6:54 AM,55.0,51.1,86,29.78,10.0,East,10.4,16.1,N/A,,Scattered Clouds,80,2013-08-23 14:54:00
7:03 AM,55.4,51.8,88,29.76,10.0,ENE,8.1,16.1,N/A,,Mostly Cloudy,70,2013-08-23 15:03:00
7:54 AM,55.9,51.1,84,29.77,10.0,East,8.1,-,N/A,,Overcast,80,2013-08-23 15:54:00
8:10 AM,55.4,51.8,88,29.76,10.0,East,10.4,-,N/A,,Overcast,80,2013-08-23 16:10:00
8:54 AM,55.9,52.0,87,29.76,10.0,Variable,6.9,-,N/A,,Overcast,0,2013-08-23 16:54:00
9:33 AM,57.2,51.8,82,29.74,10.0,East,11.5,21.9,N/A,,Overcast,90,2013-08-23 17:33:00
9:51 AM,57.2,51.8,82,29.74,10.0,East,8.1,17.3,N/A,,Overcast,90,2013-08-23 17:51:00
9:54 AM,57.0,52.0,83,29.75,10.0,East,11.5,17.3,N/A,,Mostly Cloudy,90,2013-08-23 17:54:00
10:13 AM,57.2,51.8,82,29.74,10.0,East,11.5,17.3,N/A,,Scattered Clouds,80,2013-08-23 18:13:00
10:22 AM,57.2,51.8,82,29.74,10.0,Variable,5.8,16.1,N/A,,Mostly Cloudy,0,2013-08-23 18:22:00
10:47 AM,57.2,51.8,82,29.74,10.0,East,10.4,20.7,N/A,,Scattered Clouds,100,2013-08-23 18:47:00
10:54 AM,57.9,53.1,84,29.75,10.0,East,10.4,-,N/A,,Mostly Cloudy,90,2013-08-23 18:54:00
11:54 AM,57.9,52.0,81,29.73,10.0,ESE,11.5,18.4,N/A,,Overcast,120,2013-08-23 19:54:00
12:54 PM,57.9,52.0,81,29.73,10.0,East,10.4,19.6,N/A,,Overcast,100,2013-08-23 20:54:00
1:54 PM,57.9,51.1,78,29.72,10.0,Variable,6.9,19.6,N/A,,Overcast,0,2013-08-23 21:54:00
2:16 PM,57.2,51.8,82,29.71,10.0,ESE,8.1,-,N/A,,Overcast,120,2013-08-23 22:16:00
2:35 PM,57.2,51.8,82,29.70,10.0,East,6.9,18.4,N/A,,Overcast,80,2013-08-23 22:35:00
2:54 PM,57.9,51.1,78,29.71,10.0,ESE,5.8,20.7,0.00,Rain,Light Rain,110,2013-08-23 22:54:00
3:54 PM,57.9,51.1,78,29.69,10.0,Variable,6.9,16.1,0.00,,Overcast,0,2013-08-23 23:54:00
4:54 PM,57.9,50.0,75,29.67,10.0,Variable,5.8,-,N/A,,Overcast,0,2013-08-24 00:54:00
5:54 PM,57.9,50.0,75,29.65,10.0,East,10.4,19.6,N/A,,Overcast,80,2013-08-24 01:54:00
6:54 PM,57.9,50.0,75,29.64,10.0,East,15.0,20.7,N/A,,Overcast,80,2013-08-24 02:54:00
7:54 PM,57.9,50.0,75,29.62,10.0,East,11.5,19.6,N/A,,Overcast,80,2013-08-24 03:54:00
8:54 PM,57.9,50.0,75,29.62,10.0,ENE,13.8,23.0,N/A,,Overcast,70,2013-08-24 04:54:00
9:54 PM,57.9,50.0,75,29.60,10.0,ENE,12.7,20.7,N/A,,Overcast,70,2013-08-24 05:54:00
10:54 PM,57.9,50.0,75,29.60,10.0,ENE,12.7,-,N/A,,Overcast,70,2013-08-24 06:54:00
11:28 PM,57.2,51.8,82,29.60,7.0,ENE,8.1,18.4,0.00,Rain,Light Rain,70,2013-08-24 07:28:00
11:54 PM,55.9,52.0,87,29.60,6.0,ENE,9.2,17.3,0.01,Rain,Light Rain,70,2013-08-24 07:54:00